< Typhoon 196913 1969 Season Typhoon 196915 >
Typhoon 196914 (HELEN)
General InformationTrack Information on Google Maps || Disaster Info.ResourceGoogle EarthGE AnimationAtom FeedGeoJSON
Detalied Best Track (Time Zone = UTC)
Year Month Day Hour Lat. Long. Pressure (hPa) Wind (kt) Class Image Chart
1969 10 5 12 10.7 158.0 1008 0 2 -- Chart
1969 10 5 18 10.8 157.2 1008 0 2 -- Chart
1969 10 6 00 11.0 156.3 1008 0 2 -- Chart
1969 10 6 06 11.2 155.5 1008 0 2 -- Chart
1969 10 6 12 11.5 155.0 1008 0 2 -- Chart
1969 10 6 18 11.7 154.4 1008 0 2 -- Chart
1969 10 7 00 12.0 153.8 1008 0 2 -- Chart
1969 10 7 06 12.4 153.2 1006 0 2 -- Chart
1969 10 7 12 12.9 152.8 1006 0 2 -- Chart
1969 10 7 18 13.4 152.4 1004 0 2 -- Chart
1969 10 8 00 14.0 152.0 1004 0 2 -- Chart
1969 10 8 06 14.9 150.5 1002 0 2 -- Chart
1969 10 8 12 15.6 149.0 1002 0 2 -- Chart
1969 10 8 18 16.3 147.8 1000 0 2 -- Chart
1969 10 9 00 17.2 146.9 1000 0 2 -- Chart
1969 10 9 06 18.1 145.6 990 0 9 -- Chart
1969 10 9 12 18.8 144.6 980 0 9 -- Chart
1969 10 9 18 19.3 143.8 970 0 9 -- Chart
1969 10 10 00 19.9 143.0 960 0 9 -- Chart
1969 10 10 06 20.8 142.5 955 0 9 -- Chart
1969 10 10 12 21.9 142.1 950 0 9 -- Chart
1969 10 10 18 22.8 141.7 945 0 9 -- Chart
1969 10 11 00 24.3 141.7 935 0 9 -- Chart
1969 10 11 06 25.8 142.4 930 0 9 -- Chart
1969 10 11 12 27.5 143.7 935 0 9 -- Chart
1969 10 11 18 29.5 146.0 940 0 9 -- Chart
1969 10 12 00 32.1 148.9 950 0 9 -- Chart
1969 10 12 06 34.2 152.2 955 0 9 -- Chart
1969 10 12 12 36.0 157.0 965 0 9 -- Chart
1969 10 12 18 37.0 162.6 970 0 9 -- Chart
1969 10 13 00 37.0 166.5 980 0 9 -- Chart
1969 10 13 06 37.0 170.5 985 0 9 -- Chart
1969 10 13 12 37.0 174.1 990 0 9 -- Chart
1969 10 13 18 36.8 177.2 995 0 6 -- Chart
1969 10 14 00 36.3 179.4 1000 0 6 -- Chart
1969 10 14 06 35.8 181.7 1006 0 6 -- Chart
Japan Meteorological Agency Best Track Data | Correction Date : 1989-06-01
< Typhoon 196913 1969 Season Typhoon 196915 >

Help